createdAt,value
2018-12-21T00:01:29.292Z,6.40
2018-12-21T00:04:35.509Z,6.40
2018-12-21T00:07:41.944Z,6.40
2018-12-21T00:10:48.237Z,6.50
2018-12-21T00:13:54.337Z,6.40
2018-12-21T00:17:00.499Z,6.30
2018-12-21T00:20:08.684Z,6.40
2018-12-21T00:23:15.030Z,6.30
2018-12-21T00:26:21.026Z,6.30
2018-12-21T00:29:26.985Z,6.30
2018-12-21T00:32:38.304Z,6.30
2018-12-21T00:35:49.838Z,6.30
2018-12-21T00:39:01.133Z,6.30
2018-12-21T00:42:09.369Z,6.40
2018-12-21T00:45:21.272Z,6.30
2018-12-21T00:48:28.383Z,6.20
2018-12-21T00:51:34.622Z,6.30
2018-12-21T00:54:40.728Z,6.30
2018-12-21T00:57:46.947Z,6.30
2018-12-21T01:00:53.133Z,6.30
2018-12-21T01:03:59.910Z,6.40
2018-12-21T01:07:06.302Z,6.30
2018-12-21T01:10:12.767Z,6.20
2018-12-21T01:13:19.037Z,6.30
2018-12-21T01:16:25.145Z,6.30
2018-12-21T01:19:31.543Z,6.40
2018-12-21T01:22:37.942Z,6.30
2018-12-21T01:25:44.168Z,6.30
2018-12-21T01:28:50.381Z,6.40
2018-12-21T01:31:56.449Z,6.30
2018-12-21T01:35:03.257Z,6.40
2018-12-21T01:38:09.871Z,6.40
2018-12-21T01:41:16.303Z,6.40
2018-12-21T01:44:22.591Z,6.40
2018-12-21T01:47:29.043Z,6.50
2018-12-21T01:50:35.112Z,6.50
2018-12-21T01:53:41.276Z,6.50
2018-12-21T01:56:47.865Z,6.50
2018-12-21T01:59:54.035Z,6.40
2018-12-21T02:03:00.844Z,6.50
2018-12-21T02:06:07.160Z,6.50
2018-12-21T02:09:13.159Z,6.50
2018-12-21T02:12:19.507Z,6.60
2018-12-21T02:15:26.179Z,6.60
2018-12-21T02:18:32.509Z,6.60
2018-12-21T02:21:39.106Z,6.50
2018-12-21T02:24:45.378Z,6.50
2018-12-21T02:27:51.548Z,6.60
2018-12-21T02:30:57.862Z,6.60
2018-12-21T02:34:03.936Z,6.60
2018-12-21T02:37:10.543Z,6.50
2018-12-21T02:40:17.037Z,6.50
2018-12-21T02:43:23.161Z,6.50
2018-12-21T02:46:29.500Z,6.40
2018-12-21T02:49:35.783Z,6.40
2018-12-21T02:52:41.890Z,6.40
2018-12-21T02:55:48.643Z,6.40
2018-12-21T02:58:54.831Z,6.40
2018-12-21T03:02:00.952Z,6.50
2018-12-21T03:05:07.219Z,6.50
2018-12-21T03:08:13.445Z,6.50
2018-12-21T03:11:20.321Z,6.40
2018-12-21T03:14:26.393Z,6.40
2018-12-21T03:17:33.112Z,6.50
2018-12-21T03:20:39.524Z,6.60
2018-12-21T03:23:45.633Z,6.60
2018-12-21T03:26:51.952Z,6.50
2018-12-21T03:29:58.262Z,6.60
2018-12-21T03:33:04.446Z,6.60
2018-12-21T03:36:10.645Z,6.70
2018-12-21T03:39:16.787Z,6.70
2018-12-21T03:42:22.949Z,6.70
2018-12-21T03:45:29.268Z,6.70
2018-12-21T03:48:35.295Z,6.70
2018-12-21T03:51:41.755Z,6.70
2018-12-21T03:54:47.919Z,6.70
2018-12-21T03:57:54.343Z,6.80
2018-12-21T04:01:00.752Z,6.80
2018-12-21T04:04:06.973Z,6.90
2018-12-21T04:07:13.154Z,7.00
2018-12-21T04:10:19.481Z,6.90
2018-12-21T04:13:25.688Z,7.00
2018-12-21T04:16:31.842Z,6.90
2018-12-21T04:19:38.496Z,6.90
2018-12-21T04:22:44.893Z,7.00
2018-12-21T04:25:51.391Z,6.90
2018-12-21T04:28:57.958Z,7.00
2018-12-21T04:32:04.843Z,7.00
2018-12-21T04:35:11.139Z,6.90
2018-12-21T04:38:17.363Z,6.90
2018-12-21T04:41:23.744Z,6.90
2018-12-21T04:44:29.851Z,6.90
2018-12-21T04:47:36.717Z,6.80
2018-12-21T04:50:42.860Z,6.80
2018-12-21T04:53:49.098Z,6.80
2018-12-21T04:56:55.566Z,6.80
2018-12-21T05:00:02.448Z,6.80
2018-12-21T05:03:08.988Z,6.70
2018-12-21T05:06:15.321Z,6.70
2018-12-21T05:09:21.790Z,6.70
2018-12-21T05:12:27.955Z,6.70
2018-12-21T05:15:34.411Z,6.70
2018-12-21T05:18:40.807Z,6.60
2018-12-21T05:21:47.074Z,6.60
2018-12-21T05:24:53.301Z,6.80
2018-12-21T05:27:59.870Z,6.80
2018-12-21T05:31:06.148Z,6.80
2018-12-21T05:34:13.198Z,6.80
2018-12-21T05:37:19.581Z,6.90
2018-12-21T05:40:25.711Z,6.90
2018-12-21T05:43:32.489Z,7.00
2018-12-21T05:46:38.648Z,7.00
2018-12-21T05:49:45.703Z,7.00
2018-12-21T05:52:51.827Z,7.10
2018-12-21T05:55:57.972Z,7.10
2018-12-21T05:59:04.247Z,7.10
2018-12-21T06:02:10.367Z,7.10
2018-12-21T06:05:16.498Z,7.10
2018-12-21T06:08:23.374Z,7.00
2018-12-21T06:11:29.708Z,7.00
2018-12-21T06:14:35.821Z,7.00
2018-12-21T06:17:42.250Z,7.00
2018-12-21T06:20:48.650Z,7.10
2018-12-21T06:23:54.788Z,7.10
2018-12-21T06:27:01.065Z,7.00
2018-12-21T06:30:08.197Z,7.10
2018-12-21T06:33:14.302Z,7.00
2018-12-21T06:36:20.463Z,7.00
2018-12-21T06:39:26.638Z,7.10
2018-12-21T06:42:33.002Z,7.10
2018-12-21T06:45:39.412Z,7.20
2018-12-21T06:48:45.495Z,7.00
2018-12-21T06:51:51.669Z,7.00
2018-12-21T06:54:58.483Z,6.90
2018-12-21T06:58:04.682Z,6.90
2018-12-21T07:01:11.264Z,6.90
2018-12-21T07:04:17.563Z,6.70
2018-12-21T07:07:23.799Z,6.80
2018-12-21T07:10:30.455Z,6.80
2018-12-21T07:13:36.750Z,6.70
2018-12-21T07:16:43.025Z,6.60
2018-12-21T07:19:49.285Z,6.60
2018-12-21T07:22:55.564Z,6.50
2018-12-21T07:26:02.278Z,6.50
2018-12-21T07:29:08.597Z,6.40
2018-12-21T07:32:14.781Z,6.40
2018-12-21T07:35:21.132Z,6.40
2018-12-21T07:38:27.732Z,6.40
2018-12-21T07:41:35.376Z,6.30
2018-12-21T07:44:41.978Z,6.30
2018-12-21T07:47:48.517Z,6.30
2018-12-21T07:50:54.754Z,6.20
2018-12-21T07:54:01.050Z,6.20
2018-12-21T07:57:08.318Z,6.20
2018-12-21T08:00:14.647Z,6.20
2018-12-21T08:03:20.960Z,6.10
2018-12-21T08:06:27.183Z,6.10
2018-12-21T08:09:33.824Z,6.10
2018-12-21T08:12:40.729Z,6.10
2018-12-21T08:15:47.169Z,6.20
2018-12-21T08:18:53.639Z,6.20
2018-12-21T08:21:59.977Z,6.20
2018-12-21T08:25:07.377Z,6.10
2018-12-21T08:28:13.655Z,6.10
2018-12-21T08:31:19.942Z,6.10
2018-12-21T08:34:26.114Z,6.20
2018-12-21T08:37:32.408Z,6.10
2018-12-21T08:40:38.521Z,6.20
2018-12-21T08:43:45.067Z,6.20
2018-12-21T08:46:51.691Z,6.20
2018-12-21T08:49:57.851Z,6.20
2018-12-21T08:53:04.414Z,6.10
2018-12-21T08:56:10.643Z,6.20
2018-12-21T08:59:17.895Z,6.20
2018-12-21T09:02:24.083Z,6.20
2018-12-21T09:05:30.495Z,6.10
2018-12-21T09:08:36.858Z,6.10
2018-12-21T09:11:42.954Z,6.10
2018-12-21T09:14:49.589Z,6.10
2018-12-21T09:17:56.068Z,6.20
2018-12-21T09:21:02.360Z,6.20
2018-12-21T09:24:08.454Z,6.30
2018-12-21T09:27:14.959Z,6.30
2018-12-21T09:30:21.289Z,6.20
2018-12-21T09:33:27.406Z,6.20
2018-12-21T09:36:33.914Z,6.30
2018-12-21T09:39:40.060Z,6.20
2018-12-21T09:42:46.618Z,6.20
2018-12-21T09:45:53.676Z,6.20
2018-12-21T09:49:00.074Z,6.20
2018-12-21T09:52:06.378Z,6.20
2018-12-21T09:55:12.773Z,6.20
2018-12-21T09:58:18.899Z,6.20
2018-12-21T10:01:25.918Z,6.30
2018-12-21T10:04:32.186Z,6.20
2018-12-21T10:07:38.619Z,6.10
2018-12-21T10:10:44.842Z,6.10
2018-12-21T10:13:51.013Z,6.20
2018-12-21T10:16:57.216Z,6.30
2018-12-21T10:20:03.511Z,6.20
2018-12-21T10:23:09.595Z,6.10
2018-12-21T10:26:15.891Z,6.20
2018-12-21T10:29:22.353Z,6.20
2018-12-21T10:32:28.563Z,6.20
2018-12-21T10:35:34.552Z,6.20
2018-12-21T10:38:40.997Z,6.20
2018-12-21T10:41:47.728Z,6.10
2018-12-21T10:44:54.066Z,6.20
2018-12-21T10:48:00.398Z,6.30
2018-12-21T10:51:06.843Z,6.30
2018-12-21T10:54:12.993Z,6.30
2018-12-21T10:57:19.275Z,6.30
2018-12-21T11:00:25.617Z,6.40
2018-12-21T11:03:31.995Z,6.40
2018-12-21T11:06:38.597Z,6.50
2018-12-21T11:09:44.915Z,6.50
2018-12-21T11:12:51.332Z,6.60
2018-12-21T11:15:57.748Z,6.70
2018-12-21T11:19:04.043Z,6.70
2018-12-21T11:22:10.928Z,6.80
2018-12-21T11:25:17.323Z,6.80
2018-12-21T11:28:25.519Z,6.90
2018-12-21T11:31:31.995Z,6.90
2018-12-21T11:34:38.464Z,7.00
2018-12-21T11:37:45.040Z,7.00
2018-12-21T11:40:51.412Z,7.10
2018-12-21T11:43:57.675Z,7.00
2018-12-21T11:47:04.713Z,7.00
2018-12-21T11:50:12.210Z,7.00
2018-12-21T11:53:18.926Z,7.20
2018-12-21T11:56:25.320Z,7.20
2018-12-21T11:59:31.621Z,7.30
2018-12-21T12:02:37.859Z,7.30
2018-12-21T12:05:44.069Z,7.20
2018-12-21T12:08:50.251Z,7.30
2018-12-21T12:11:56.638Z,7.40
2018-12-21T12:15:03.212Z,7.50
2018-12-21T12:18:09.750Z,7.60
2018-12-21T12:21:15.989Z,7.50
2018-12-21T12:24:22.686Z,7.60
2018-12-21T12:27:28.863Z,7.60
2018-12-21T12:30:35.195Z,7.60
2018-12-21T12:33:41.468Z,7.70
2018-12-21T12:36:47.836Z,7.70
2018-12-21T12:39:54.149Z,7.60
2018-12-21T12:43:00.466Z,7.60
2018-12-21T12:46:06.835Z,7.70
2018-12-21T12:49:13.149Z,7.70
2018-12-21T12:52:19.481Z,7.70
2018-12-21T12:55:26.346Z,7.80
2018-12-21T12:58:32.586Z,7.90
2018-12-21T13:01:39.037Z,7.90
2018-12-21T13:04:45.291Z,7.90
2018-12-21T13:07:51.562Z,8.00
2018-12-21T13:10:58.578Z,8.00
2018-12-21T13:14:07.866Z,8.10
2018-12-21T13:17:13.932Z,8.20
2018-12-21T13:20:20.208Z,8.30
2018-12-21T13:23:26.260Z,8.40
2018-12-21T13:26:33.002Z,8.40
2018-12-21T13:29:39.117Z,8.50
2018-12-21T13:32:45.453Z,8.50
2018-12-21T13:35:51.546Z,8.50
2018-12-21T13:38:57.746Z,8.60
2018-12-21T13:42:04.377Z,8.60
2018-12-21T13:45:11.260Z,8.70
2018-12-21T13:48:17.976Z,8.70
2018-12-21T13:51:24.218Z,8.70
2018-12-21T13:54:30.385Z,8.80
2018-12-21T13:57:36.609Z,8.80
2018-12-21T14:00:42.744Z,8.80
2018-12-21T14:03:48.856Z,8.80
2018-12-21T14:06:54.999Z,8.90
2018-12-21T14:10:01.327Z,8.90
2018-12-21T14:13:08.360Z,8.90
2018-12-21T14:16:14.685Z,9.00
2018-12-21T14:19:20.832Z,9.00
2018-12-21T14:22:27.023Z,9.00
2018-12-21T14:25:33.369Z,9.00
2018-12-21T14:28:42.548Z,9.00
2018-12-21T14:31:48.939Z,9.00
2018-12-21T14:34:55.190Z,9.10
2018-12-21T14:38:01.695Z,9.10
2018-12-21T14:41:07.914Z,9.10
2018-12-21T14:44:14.107Z,9.10
2018-12-21T14:47:20.943Z,9.10
2018-12-21T14:50:27.088Z,9.20
2018-12-21T14:53:33.273Z,9.30
2018-12-21T14:56:39.354Z,9.30
2018-12-21T14:59:46.745Z,9.30
2018-12-21T15:02:52.927Z,9.40
2018-12-21T15:05:59.115Z,9.40
2018-12-21T15:09:07.353Z,9.50
2018-12-21T15:12:13.548Z,9.50
2018-12-21T15:15:21.092Z,9.50
2018-12-21T15:18:28.755Z,9.50
2018-12-21T15:21:35.269Z,9.50
2018-12-21T15:24:41.650Z,9.60
2018-12-21T15:27:48.316Z,9.60
2018-12-21T15:30:54.670Z,9.50
2018-12-21T15:34:00.951Z,9.60
2018-12-21T15:37:07.222Z,9.60
2018-12-21T15:40:13.586Z,9.60
2018-12-21T15:43:19.871Z,9.70
2018-12-21T15:46:26.297Z,9.70
2018-12-21T15:49:32.921Z,9.70
2018-12-21T15:52:39.622Z,9.60
2018-12-21T15:55:45.718Z,9.70
2018-12-21T15:58:51.799Z,9.70
2018-12-21T16:01:57.849Z,9.70
2018-12-21T16:05:04.254Z,9.70
2018-12-21T16:08:10.387Z,9.70
2018-12-21T16:11:16.604Z,9.80
2018-12-21T16:14:22.920Z,9.80
2018-12-21T16:17:29.052Z,9.80
2018-12-21T16:20:35.148Z,9.80
2018-12-21T16:23:41.361Z,9.70
2018-12-21T16:26:47.593Z,9.80
2018-12-21T16:29:53.897Z,9.80
2018-12-21T16:33:00.582Z,9.80
2018-12-21T16:36:06.606Z,10.00
2018-12-21T16:39:12.677Z,10.00
2018-12-21T16:42:18.856Z,10.00
2018-12-21T16:45:24.900Z,10.00
2018-12-21T16:48:32.573Z,10.00
2018-12-21T16:51:45.165Z,10.10
2018-12-21T16:54:51.258Z,10.10
2018-12-21T16:57:57.447Z,10.10
2018-12-21T17:01:04.263Z,10.10
2018-12-21T17:04:10.303Z,10.10
2018-12-21T17:07:16.395Z,10.10
2018-12-21T17:10:23.962Z,10.20
2018-12-21T17:13:30.150Z,10.20
2018-12-21T17:16:36.401Z,10.30
2018-12-21T17:19:42.453Z,10.30
2018-12-21T17:22:48.425Z,10.30
2018-12-21T17:25:54.361Z,10.30
2018-12-21T17:29:00.431Z,10.20
2018-12-21T17:32:06.385Z,10.20
2018-12-21T17:35:13.065Z,10.10
2018-12-21T17:38:19.061Z,10.10
2018-12-21T17:41:25.144Z,10.00
2018-12-21T17:44:31.205Z,10.10
2018-12-21T17:47:37.292Z,10.10
2018-12-21T17:50:43.311Z,10.20
2018-12-21T17:53:49.306Z,10.10
2018-12-21T17:56:55.284Z,10.20
2018-12-21T18:00:02.115Z,10.20
2018-12-21T18:03:12.185Z,10.20
2018-12-21T18:06:18.486Z,10.20
2018-12-21T18:09:26.923Z,10.20
2018-12-21T18:12:32.902Z,10.20
2018-12-21T18:15:38.966Z,10.10
2018-12-21T18:18:46.142Z,10.10
2018-12-21T18:21:58.417Z,10.00
2018-12-21T18:25:16.151Z,10.00
2018-12-21T18:28:26.395Z,10.10
2018-12-21T18:31:42.651Z,10.20
2018-12-21T18:34:49.364Z,10.20
2018-12-21T18:37:59.863Z,10.20
2018-12-21T18:41:05.970Z,10.20
2018-12-21T18:44:11.987Z,10.30
2018-12-21T18:47:17.979Z,10.40
2018-12-21T18:50:26.205Z,10.40
2018-12-21T18:53:32.228Z,10.50
2018-12-21T18:56:47.379Z,10.50
2018-12-21T18:59:53.256Z,10.50
2018-12-21T19:02:59.356Z,10.50
2018-12-21T19:06:05.584Z,10.50
2018-12-21T19:09:11.709Z,10.60
2018-12-21T19:12:17.748Z,10.60
2018-12-21T19:15:24.623Z,10.50
2018-12-21T19:18:30.697Z,10.40
2018-12-21T19:21:36.794Z,10.30
2018-12-21T19:24:43.003Z,10.20
2018-12-21T19:27:49.242Z,10.20
2018-12-21T19:30:55.654Z,10.10
2018-12-21T19:34:01.842Z,10.10
2018-12-21T19:37:07.946Z,10.10
2018-12-21T19:40:14.026Z,10.00
2018-12-21T19:43:27.996Z,10.00
2018-12-21T19:46:28.218Z,9.90
2018-12-21T19:49:34.512Z,9.90
2018-12-21T19:52:41.058Z,10.00
2018-12-21T19:55:53.463Z,9.90
2018-12-21T19:59:00.234Z,10.00
2018-12-21T20:02:07.004Z,10.10
2018-12-21T20:05:13.192Z,10.10
2018-12-21T20:08:19.369Z,10.20
2018-12-21T20:11:25.696Z,10.20
2018-12-21T20:14:31.867Z,10.30
2018-12-21T20:17:39.011Z,10.30
2018-12-21T20:20:45.195Z,10.40
2018-12-21T20:23:51.533Z,10.40
2018-12-21T20:27:02.085Z,10.50
2018-12-21T20:30:11.822Z,10.50
2018-12-21T20:33:17.934Z,10.50
2018-12-21T20:36:24.403Z,10.60
2018-12-21T20:39:30.931Z,10.60
2018-12-21T20:42:38.210Z,10.60
2018-12-21T20:45:44.766Z,10.70
2018-12-21T20:48:51.278Z,10.80
2018-12-21T20:51:57.606Z,10.90
2018-12-21T20:55:05.026Z,10.90
2018-12-21T20:58:21.539Z,10.80
2018-12-21T21:01:27.938Z,10.80
2018-12-21T21:04:35.059Z,10.90
2018-12-21T21:07:41.578Z,10.90
2018-12-21T21:10:47.962Z,10.90
2018-12-21T21:13:54.401Z,10.90
2018-12-21T21:17:00.636Z,10.90
2018-12-21T21:20:10.177Z,10.90
2018-12-21T21:23:17.095Z,10.90
2018-12-21T21:26:23.245Z,10.90
2018-12-21T21:29:29.439Z,10.80
2018-12-21T21:32:35.554Z,10.80
2018-12-21T21:35:41.738Z,10.60
2018-12-21T21:38:48.121Z,10.60
2018-12-21T21:41:54.469Z,10.60
2018-12-21T21:45:00.783Z,10.50
2018-12-21T21:48:06.898Z,10.50
2018-12-21T21:51:13.938Z,10.60
2018-12-21T21:54:20.336Z,10.60
2018-12-21T21:57:26.343Z,10.50
2018-12-21T22:00:32.720Z,10.50
2018-12-21T22:03:38.859Z,10.50
2018-12-21T22:06:45.062Z,10.50
2018-12-21T22:09:51.101Z,10.50
2018-12-21T22:12:57.150Z,10.50
2018-12-21T22:16:03.332Z,10.50
2018-12-21T22:19:09.432Z,10.50
2018-12-21T22:22:15.418Z,10.50
2018-12-21T22:25:21.523Z,10.60
2018-12-21T22:28:27.526Z,10.60
2018-12-21T22:31:33.630Z,10.60
2018-12-21T22:34:39.688Z,10.60
2018-12-21T22:37:45.814Z,10.60
2018-12-21T22:40:51.862Z,10.60
2018-12-21T22:43:58.681Z,10.70
2018-12-21T22:47:05.022Z,10.70
2018-12-21T22:50:11.159Z,10.70
2018-12-21T22:53:20.270Z,10.80
2018-12-21T22:56:26.471Z,10.70
2018-12-21T22:59:32.665Z,10.70
2018-12-21T23:02:38.814Z,10.60
2018-12-21T23:05:45.131Z,10.60
2018-12-21T23:08:51.375Z,10.60
2018-12-21T23:11:57.461Z,10.70
2018-12-21T23:15:04.693Z,10.70
2018-12-21T23:18:10.730Z,10.70
2018-12-21T23:21:16.825Z,10.70
2018-12-21T23:24:23.179Z,10.60
2018-12-21T23:27:29.445Z,10.60
2018-12-21T23:30:37.423Z,10.60
2018-12-21T23:33:44.198Z,10.60
2018-12-21T23:36:50.699Z,10.60
2018-12-21T23:39:57.093Z,10.60
2018-12-21T23:43:03.327Z,10.50
2018-12-21T23:46:09.897Z,10.50
2018-12-21T23:49:16.197Z,10.50
2018-12-21T23:52:23.633Z,10.50
2018-12-21T23:55:31.458Z,10.60
2018-12-21T23:58:37.701Z,10.60
